Cumari, Brazil
Current Conditions -  °F | °C
As of 6:00 AM on Wednesday 22 Oct 2014 (Local Time) from SBUL Reporting Station
Clear Clear  
Wind Chill: 64°   Ceiling: Unl
Heat Index: 64°   Visibility: 6mi
Dew Point: 61°   Wind: 12mph
Humidity: 88%   Direction: 80°E
Pressure: 30.03"   Gusts: NA
Location:  18.26°S, 48.15°W
Report Text: SBUL 220800Z 08010KT CAVOK 18/16 Q1017
Loading
Personal Weather Stations






























Interactive Weather Map New forecast layout! Learn more

10-Day Weather Forecast

Advertisements
Track Severe Weather on mobile